createdAt,value
2023-01-26T00:00:43.685Z,1.50
2023-01-26T00:03:13.237Z,1.50
2023-01-26T00:05:43.801Z,1.50
2023-01-26T00:08:14.272Z,1.60
2023-01-26T00:10:49.207Z,1.50
2023-01-26T00:13:23.305Z,1.60
2023-01-26T00:15:52.932Z,1.50
2023-01-26T00:18:22.425Z,1.70
2023-01-26T00:21:01.311Z,1.50
2023-01-26T00:23:33.086Z,1.60
2023-01-26T00:26:03.648Z,1.50
2023-01-26T00:28:33.341Z,1.60
2023-01-26T00:31:07.752Z,1.50
2023-01-26T00:33:39.081Z,1.60
2023-01-26T00:36:09.539Z,1.60
2023-01-26T00:38:39.718Z,1.40
2023-01-26T00:41:13.537Z,1.50
2023-01-26T00:43:44.004Z,1.50
2023-01-26T00:46:15.157Z,1.30
2023-01-26T00:48:45.204Z,1.40
2023-01-26T00:51:15.242Z,1.30
2023-01-26T00:53:44.735Z,1.40
2023-01-26T00:56:15.077Z,1.40
2023-01-26T00:58:45.769Z,1.40
2023-01-26T01:01:15.302Z,1.30
2023-01-26T01:03:45.059Z,1.40
2023-01-26T01:06:14.487Z,1.40
2023-01-26T01:08:43.913Z,1.30
2023-01-26T01:11:13.569Z,1.30
2023-01-26T01:13:43.131Z,1.50
2023-01-26T01:16:16.765Z,1.50
2023-01-26T01:18:47.585Z,1.30
2023-01-26T01:21:18.637Z,1.50
2023-01-26T01:23:49.067Z,1.60
2023-01-26T01:26:20.424Z,1.50
2023-01-26T01:28:51.265Z,1.40
2023-01-26T01:31:20.819Z,1.60
2023-01-26T01:33:52.803Z,1.50
2023-01-26T01:36:22.861Z,1.50
2023-01-26T01:38:54.121Z,1.60
2023-01-26T01:41:24.204Z,1.60
2023-01-26T01:44:00.311Z,1.60
2023-01-26T01:46:35.731Z,1.50
2023-01-26T01:49:08.495Z,1.60
2023-01-26T01:51:53.172Z,1.50
2023-01-26T01:54:30.335Z,1.60
2023-01-26T01:57:03.701Z,1.70
2023-01-26T01:59:35.375Z,1.70
2023-01-26T02:02:04.895Z,1.60
2023-01-26T02:04:35.446Z,1.60
2023-01-26T02:07:06.283Z,1.70
2023-01-26T02:09:57.217Z,1.80
2023-01-26T02:12:29.714Z,1.70
2023-01-26T02:15:01.170Z,1.60
2023-01-26T02:17:30.810Z,1.70
2023-01-26T02:20:24.441Z,1.80
2023-01-26T02:23:06.513Z,1.80
2023-01-26T02:25:42.958Z,1.70
2023-01-26T02:28:12.687Z,1.80
2023-01-26T02:30:42.401Z,1.70
2023-01-26T02:33:28.060Z,1.70
2023-01-26T02:35:59.532Z,1.80
2023-01-26T02:38:32.234Z,1.80
2023-01-26T02:41:07.285Z,1.70
2023-01-26T02:43:37.901Z,1.70
2023-01-26T02:46:07.392Z,1.80
2023-01-26T02:48:56.536Z,1.80
2023-01-26T02:51:26.113Z,1.70
2023-01-26T02:53:55.849Z,1.70
2023-01-26T02:56:25.577Z,1.70
2023-01-26T02:58:56.486Z,1.80
2023-01-26T03:01:26.065Z,1.70
2023-01-26T03:03:55.553Z,1.70
2023-01-26T03:06:25.435Z,1.70
2023-01-26T03:08:55.481Z,1.70
2023-01-26T03:11:26.621Z,1.70
2023-01-26T03:13:56.188Z,1.70
2023-01-26T03:16:25.615Z,1.80
2023-01-26T03:19:06.049Z,1.80
2023-01-26T03:21:53.671Z,1.80
2023-01-26T03:25:58.360Z,1.70
2023-01-26T03:28:29.261Z,1.70
2023-01-26T03:30:59.706Z,1.60
2023-01-26T03:33:30.581Z,1.80
2023-01-26T03:36:00.330Z,1.80
2023-01-26T03:38:29.844Z,1.80
2023-01-26T03:41:18.844Z,1.60
2023-01-26T03:44:05.870Z,1.70
2023-01-26T03:46:53.704Z,1.80
2023-01-26T03:49:41.339Z,1.70
2023-01-26T03:52:29.348Z,1.70
2023-01-26T03:55:16.885Z,1.70
2023-01-26T03:57:46.509Z,1.80
2023-01-26T04:00:16.355Z,1.90
2023-01-26T04:03:05.260Z,1.80
2023-01-26T04:05:52.845Z,1.80
2023-01-26T04:08:27.617Z,1.90
2023-01-26T04:11:01.792Z,1.90
2023-01-26T04:13:50.587Z,1.80
2023-01-26T04:16:42.605Z,1.80
2023-01-26T04:19:30.856Z,1.80
2023-01-26T04:22:03.585Z,1.90
2023-01-26T04:24:34.960Z,1.90
2023-01-26T04:27:04.464Z,1.80
2023-01-26T04:29:35.680Z,1.90
2023-01-26T04:32:05.694Z,1.90
2023-01-26T04:34:36.355Z,1.80
2023-01-26T04:37:07.559Z,1.90
2023-01-26T04:39:38.959Z,1.90
2023-01-26T04:42:09.334Z,1.90
2023-01-26T04:44:38.750Z,1.90
2023-01-26T04:47:09.043Z,1.90
2023-01-26T04:49:39.607Z,2.00
2023-01-26T04:52:09.489Z,1.90
2023-01-26T04:54:39.971Z,2.00
2023-01-26T04:57:09.682Z,2.00
2023-01-26T04:59:40.175Z,2.00
2023-01-26T05:02:11.279Z,2.00
2023-01-26T05:04:41.339Z,1.90
2023-01-26T05:07:11.015Z,1.80
2023-01-26T05:09:40.818Z,2.00
2023-01-26T05:12:33.383Z,2.00
2023-01-26T05:15:16.420Z,1.90
2023-01-26T05:17:48.152Z,2.00
2023-01-26T05:20:19.418Z,1.80
2023-01-26T05:23:01.900Z,1.80
2023-01-26T05:25:33.947Z,1.90
2023-01-26T05:28:05.656Z,1.80
2023-01-26T05:30:35.746Z,1.80
2023-01-26T05:33:07.742Z,1.80
2023-01-26T05:35:37.785Z,1.80
2023-01-26T05:38:10.198Z,1.90
2023-01-26T05:40:40.255Z,1.90
2023-01-26T05:43:13.036Z,1.90
2023-01-26T05:45:44.865Z,1.80
2023-01-26T05:48:15.685Z,1.90
2023-01-26T05:50:46.391Z,1.80
2023-01-26T05:53:18.092Z,1.80
2023-01-26T05:55:48.760Z,1.80
2023-01-26T05:58:20.467Z,1.90
2023-01-26T06:00:50.458Z,1.80
2023-01-26T06:03:22.455Z,1.80
2023-01-26T06:05:56.840Z,1.90
2023-01-26T06:08:28.396Z,2.00
2023-01-26T06:11:02.347Z,1.90
2023-01-26T06:13:42.463Z,2.00
2023-01-26T06:16:16.758Z,2.00
2023-01-26T06:18:50.182Z,2.00
2023-01-26T06:21:20.240Z,1.90
2023-01-26T06:23:49.729Z,1.90
2023-01-26T06:26:19.883Z,2.00
2023-01-26T06:28:49.992Z,2.00
2023-01-26T06:31:23.971Z,2.00
2023-01-26T06:33:55.307Z,1.80
2023-01-26T06:36:24.954Z,1.90
2023-01-26T06:38:56.687Z,1.90
2023-01-26T06:41:26.799Z,1.90
2023-01-26T06:43:56.370Z,1.90
2023-01-26T06:46:25.966Z,1.80
2023-01-26T06:48:56.800Z,1.90
2023-01-26T06:51:50.002Z,1.90
2023-01-26T06:54:19.749Z,1.90
2023-01-26T06:56:56.434Z,2.00
2023-01-26T06:59:35.307Z,1.90
2023-01-26T07:02:23.318Z,1.80
2023-01-26T07:04:54.649Z,1.80
2023-01-26T07:07:24.157Z,1.90
2023-01-26T07:09:53.581Z,1.80
2023-01-26T07:12:23.527Z,1.80
2023-01-26T07:14:52.976Z,1.90
2023-01-26T07:17:22.405Z,1.90
2023-01-26T07:19:52.045Z,2.00
2023-01-26T07:22:21.536Z,2.00
2023-01-26T07:24:51.016Z,2.00
2023-01-26T07:27:20.703Z,1.90
2023-01-26T07:29:51.611Z,2.00
2023-01-26T07:32:21.617Z,1.90
2023-01-26T07:34:51.113Z,2.00
2023-01-26T07:37:20.724Z,2.10
2023-01-26T07:39:50.202Z,1.90
2023-01-26T07:42:19.622Z,2.10
2023-01-26T07:44:50.837Z,2.00
2023-01-26T07:47:20.273Z,2.00
2023-01-26T07:49:50.472Z,1.80
2023-01-26T07:52:19.992Z,1.70
2023-01-26T07:54:49.555Z,1.70
2023-01-26T07:57:19.232Z,1.80
2023-01-26T07:59:48.688Z,1.80
2023-01-26T08:02:18.098Z,1.80
2023-01-26T08:04:47.698Z,1.80
2023-01-26T08:07:17.133Z,1.80
2023-01-26T08:09:47.958Z,1.80
2023-01-26T08:12:17.517Z,1.90
2023-01-26T08:14:47.445Z,1.90
2023-01-26T08:17:18.030Z,1.80
2023-01-26T08:19:47.930Z,2.00
2023-01-26T08:22:17.420Z,1.90
2023-01-26T08:24:46.916Z,2.00
2023-01-26T08:27:17.657Z,1.90
2023-01-26T08:29:47.084Z,2.00
2023-01-26T08:32:16.598Z,2.00
2023-01-26T08:34:46.591Z,2.00
2023-01-26T08:37:16.110Z,2.10
2023-01-26T08:39:45.548Z,2.10
2023-01-26T08:42:15.728Z,2.00
2023-01-26T08:44:45.428Z,2.10
2023-01-26T08:47:14.911Z,2.10
2023-01-26T08:49:44.460Z,2.10
2023-01-26T08:52:14.697Z,2.20
2023-01-26T08:54:44.675Z,2.20
2023-01-26T08:57:14.132Z,2.20
2023-01-26T08:59:43.631Z,2.10
2023-01-26T09:02:13.653Z,2.10
2023-01-26T09:04:43.393Z,2.20
2023-01-26T09:07:13.598Z,2.10
2023-01-26T09:09:43.504Z,2.20
2023-01-26T09:12:13.016Z,2.20
2023-01-26T09:14:42.553Z,2.30
2023-01-26T09:17:12.001Z,2.20
2023-01-26T09:19:43.041Z,2.30
2023-01-26T09:22:12.577Z,2.30
2023-01-26T09:24:42.073Z,2.30
2023-01-26T09:27:11.546Z,2.40
2023-01-26T09:29:41.121Z,2.40
2023-01-26T09:32:10.610Z,2.40
2023-01-26T09:34:40.038Z,2.40
2023-01-26T09:37:10.198Z,2.40
2023-01-26T09:39:39.733Z,2.40
2023-01-26T09:42:47.226Z,2.40
2023-01-26T09:45:19.800Z,2.50
2023-01-26T09:47:58.276Z,2.50
2023-01-26T09:50:30.785Z,2.50
2023-01-26T09:53:09.476Z,2.60
2023-01-26T09:55:41.164Z,2.70
2023-01-26T09:58:23.197Z,2.60
2023-01-26T10:00:55.540Z,2.70
2023-01-26T10:03:28.557Z,2.70
2023-01-26T10:05:58.996Z,2.80
2023-01-26T10:08:33.728Z,2.90
2023-01-26T10:11:09.802Z,2.90
2023-01-26T10:13:39.697Z,2.80
2023-01-26T10:16:12.503Z,2.90
2023-01-26T10:18:51.473Z,2.70
2023-01-26T10:21:24.119Z,2.80
2023-01-26T10:23:54.368Z,2.90
2023-01-26T10:26:24.774Z,2.80
2023-01-26T10:28:54.883Z,2.90
2023-01-26T10:31:27.485Z,3.00
2023-01-26T10:34:00.176Z,3.10
2023-01-26T10:36:33.592Z,3.10
2023-01-26T10:39:13.577Z,3.10
2023-01-26T10:41:51.480Z,3.00
2023-01-26T10:44:24.050Z,3.00
2023-01-26T10:47:05.857Z,3.20
2023-01-26T10:49:35.865Z,3.10
2023-01-26T10:52:24.939Z,3.20
2023-01-26T10:54:57.736Z,3.20
2023-01-26T10:57:29.775Z,3.10
2023-01-26T11:00:09.729Z,3.00
2023-01-26T11:02:40.847Z,3.10
2023-01-26T11:05:13.817Z,3.10
2023-01-26T11:07:49.620Z,2.90
2023-01-26T11:10:37.612Z,2.90
2023-01-26T11:13:20.885Z,3.00
2023-01-26T11:15:53.458Z,3.00
2023-01-26T11:18:35.103Z,2.90
2023-01-26T11:21:41.564Z,2.90
2023-01-26T11:24:18.267Z,2.90
2023-01-26T11:27:15.094Z,3.10
2023-01-26T11:30:20.697Z,3.30
2023-01-26T11:33:02.250Z,3.50
2023-01-26T11:35:53.715Z,3.60
2023-01-26T11:38:35.461Z,3.60
2023-01-26T11:41:26.113Z,3.70
2023-01-26T11:44:16.736Z,3.70
2023-01-26T11:47:22.849Z,3.80
2023-01-26T11:50:01.550Z,3.90
2023-01-26T11:52:46.535Z,3.90
2023-01-26T11:55:45.693Z,3.90
2023-01-26T11:58:27.427Z,4.00
2023-01-26T12:01:00.001Z,4.10
2023-01-26T12:03:44.364Z,4.20
2023-01-26T12:06:23.344Z,4.20
2023-01-26T12:09:01.067Z,4.20
2023-01-26T12:11:37.258Z,4.20
2023-01-26T12:14:15.657Z,4.30
2023-01-26T12:17:17.736Z,4.20
2023-01-26T12:20:04.671Z,4.30
2023-01-26T12:22:45.263Z,4.20
2023-01-26T12:25:29.908Z,4.30
2023-01-26T12:28:23.931Z,4.30
2023-01-26T12:31:18.128Z,4.20
2023-01-26T12:33:50.640Z,4.20
2023-01-26T12:36:44.006Z,4.10
2023-01-26T12:39:19.536Z,4.20
2023-01-26T12:42:16.060Z,4.20
2023-01-26T12:44:51.683Z,4.20
2023-01-26T12:47:24.183Z,4.00
2023-01-26T12:50:29.915Z,4.00
2023-01-26T12:53:17.582Z,4.10
2023-01-26T12:55:59.611Z,4.20
2023-01-26T12:58:32.113Z,4.10
2023-01-26T13:01:05.411Z,4.00
2023-01-26T13:03:43.630Z,4.00
2023-01-26T13:06:19.647Z,4.10
2023-01-26T13:09:23.952Z,4.20
2023-01-26T13:12:01.564Z,4.20
2023-01-26T13:14:46.301Z,4.20
2023-01-26T13:17:23.349Z,4.30
2023-01-26T13:19:55.126Z,4.40
2023-01-26T13:22:27.604Z,4.40
2023-01-26T13:25:03.495Z,4.40
2023-01-26T13:27:33.680Z,4.50
2023-01-26T13:30:04.031Z,4.40
2023-01-26T13:32:36.681Z,4.50
2023-01-26T13:35:09.147Z,4.30
2023-01-26T13:37:58.200Z,4.30
2023-01-26T13:40:39.576Z,4.30
2023-01-26T13:43:26.328Z,4.30
2023-01-26T13:45:58.543Z,4.40
2023-01-26T13:48:46.559Z,4.20
2023-01-26T13:51:19.128Z,4.20
2023-01-26T13:53:57.965Z,4.20
2023-01-26T13:56:32.467Z,4.20
2023-01-26T13:59:07.793Z,4.10
2023-01-26T14:01:43.174Z,4.00
2023-01-26T14:04:21.935Z,4.00
2023-01-26T14:07:00.340Z,4.00
2023-01-26T14:09:33.700Z,3.90
2023-01-26T14:12:05.923Z,3.90
2023-01-26T14:14:38.363Z,3.90
2023-01-26T14:17:11.180Z,3.80
2023-01-26T14:19:42.973Z,3.80
2023-01-26T14:22:15.213Z,3.90
2023-01-26T14:24:46.170Z,3.90
2023-01-26T14:27:33.641Z,4.00
2023-01-26T14:30:05.736Z,4.10
2023-01-26T14:32:35.377Z,4.10
2023-01-26T14:35:07.214Z,4.10
2023-01-26T14:37:36.778Z,4.10
2023-01-26T14:40:17.992Z,4.20
2023-01-26T14:42:50.424Z,4.20
2023-01-26T14:45:23.564Z,4.20
2023-01-26T14:47:54.737Z,4.20
2023-01-26T14:50:31.769Z,4.10
2023-01-26T14:53:04.823Z,4.10
2023-01-26T14:55:37.055Z,4.10
2023-01-26T14:58:10.852Z,4.10
2023-01-26T15:00:40.469Z,4.10
2023-01-26T15:03:15.704Z,4.10
2023-01-26T15:05:45.583Z,4.10
2023-01-26T15:08:21.096Z,4.10
2023-01-26T15:11:20.970Z,4.00
2023-01-26T15:13:56.253Z,4.00
2023-01-26T15:16:27.458Z,4.00
2023-01-26T15:19:09.276Z,4.00
2023-01-26T15:21:41.027Z,3.90
2023-01-26T15:24:15.953Z,3.90
2023-01-26T15:26:45.637Z,4.00
2023-01-26T15:29:27.540Z,4.00
2023-01-26T15:31:59.241Z,4.10
2023-01-26T15:34:37.892Z,4.10
2023-01-26T15:37:32.567Z,4.00
2023-01-26T15:40:02.751Z,3.90
2023-01-26T15:42:33.609Z,3.90
2023-01-26T15:45:03.741Z,3.90
2023-01-26T15:47:33.158Z,3.90
2023-01-26T15:50:03.848Z,3.80
2023-01-26T15:52:33.648Z,3.70
2023-01-26T15:55:03.193Z,3.70
2023-01-26T15:57:33.577Z,3.70
2023-01-26T16:00:05.206Z,3.70
2023-01-26T16:02:35.718Z,3.70
2023-01-26T16:05:05.502Z,3.60
2023-01-26T16:07:35.141Z,3.60
2023-01-26T16:10:05.812Z,3.60
2023-01-26T16:12:35.238Z,3.60
2023-01-26T16:15:06.880Z,3.60
2023-01-26T16:17:36.380Z,3.50
2023-01-26T16:20:07.173Z,3.50
2023-01-26T16:22:36.723Z,3.50
2023-01-26T16:25:26.199Z,3.40
2023-01-26T16:27:56.740Z,3.40
2023-01-26T16:30:27.898Z,3.40
2023-01-26T16:32:57.676Z,3.40
2023-01-26T16:35:29.689Z,3.40
2023-01-26T16:37:59.350Z,3.40
2023-01-26T16:40:29.560Z,3.40
2023-01-26T16:42:59.058Z,3.40
2023-01-26T16:45:28.578Z,3.30
2023-01-26T16:48:00.268Z,3.30
2023-01-26T16:50:31.525Z,3.30
2023-01-26T16:53:03.042Z,3.30
2023-01-26T16:55:32.447Z,3.20
2023-01-26T16:58:01.945Z,3.20
2023-01-26T17:00:32.630Z,3.20
2023-01-26T17:03:02.191Z,3.10
2023-01-26T17:05:31.673Z,3.20
2023-01-26T17:08:01.216Z,3.10
2023-01-26T17:10:30.785Z,3.10
2023-01-26T17:13:01.358Z,3.10
2023-01-26T17:15:31.566Z,3.10
2023-01-26T17:18:01.658Z,3.10
2023-01-26T17:20:32.495Z,3.10
2023-01-26T17:23:01.925Z,3.10
2023-01-26T17:25:31.573Z,3.10
2023-01-26T17:28:01.264Z,3.00
2023-01-26T17:30:30.811Z,3.00
2023-01-26T17:33:02.498Z,2.90
2023-01-26T17:35:31.925Z,3.00
2023-01-26T17:38:01.369Z,2.90
2023-01-26T17:40:31.497Z,2.90
2023-01-26T17:43:00.938Z,2.80
2023-01-26T17:45:30.533Z,2.80
2023-01-26T17:48:00.629Z,2.80
2023-01-26T17:50:31.027Z,2.80
2023-01-26T17:53:00.493Z,2.80
2023-01-26T17:55:29.930Z,2.80
2023-01-26T17:57:59.361Z,2.80
2023-01-26T18:00:29.576Z,2.80
2023-01-26T18:02:59.549Z,2.70
2023-01-26T18:05:30.059Z,2.70
2023-01-26T18:07:59.864Z,2.80
2023-01-26T18:10:31.151Z,2.80
2023-01-26T18:13:00.632Z,2.80
2023-01-26T18:15:30.059Z,2.80
2023-01-26T18:17:59.550Z,2.70
2023-01-26T18:20:29.200Z,2.70
2023-01-26T18:22:58.633Z,2.70
2023-01-26T18:25:28.919Z,2.60
2023-01-26T18:27:58.650Z,2.60
2023-01-26T18:30:28.379Z,2.60
2023-01-26T18:32:58.474Z,2.60
2023-01-26T18:35:28.117Z,2.50
2023-01-26T18:37:59.431Z,2.60
2023-01-26T18:40:30.988Z,2.60
2023-01-26T18:43:01.420Z,2.60
2023-01-26T18:45:30.847Z,2.50
2023-01-26T18:48:00.392Z,2.60
2023-01-26T18:50:29.923Z,2.50
2023-01-26T18:52:59.350Z,2.60
2023-01-26T18:55:28.878Z,2.50
2023-01-26T18:57:58.698Z,2.50
2023-01-26T19:00:28.201Z,2.50
2023-01-26T19:02:57.730Z,2.60
2023-01-26T19:05:28.323Z,2.40
2023-01-26T19:07:58.489Z,2.50
2023-01-26T19:10:29.542Z,2.50
2023-01-26T19:12:58.963Z,2.40
2023-01-26T19:15:28.416Z,2.40
2023-01-26T19:17:58.595Z,2.50
2023-01-26T19:20:28.866Z,2.50
2023-01-26T19:22:58.340Z,2.50
2023-01-26T19:25:28.332Z,2.50
2023-01-26T19:27:57.998Z,2.50
2023-01-26T19:30:27.932Z,2.50
2023-01-26T19:33:16.039Z,2.50
2023-01-26T19:35:45.790Z,2.50
2023-01-26T19:38:15.283Z,2.50
2023-01-26T19:40:47.510Z,2.40
2023-01-26T19:43:20.401Z,2.50
2023-01-26T19:45:53.089Z,2.40
2023-01-26T19:48:25.401Z,2.50
2023-01-26T19:51:17.704Z,2.50
2023-01-26T19:53:49.195Z,2.50
2023-01-26T19:56:22.198Z,2.40
2023-01-26T19:58:57.288Z,2.40
2023-01-26T20:01:29.846Z,2.40
2023-01-26T20:04:02.383Z,2.40
2023-01-26T20:06:32.704Z,2.40
2023-01-26T20:09:03.958Z,2.40
2023-01-26T20:11:35.989Z,2.40
2023-01-26T20:14:09.812Z,2.30
2023-01-26T20:16:40.716Z,2.30
2023-01-26T20:19:11.853Z,2.30
2023-01-26T20:21:41.446Z,2.30
2023-01-26T20:24:14.104Z,2.40
2023-01-26T20:26:44.976Z,2.40
2023-01-26T20:29:17.010Z,2.30
2023-01-26T20:31:47.296Z,2.30
2023-01-26T20:34:17.763Z,2.40
2023-01-26T20:36:47.849Z,2.40
2023-01-26T20:39:20.890Z,2.40
2023-01-26T20:41:51.418Z,2.30
2023-01-26T20:44:20.989Z,2.30
2023-01-26T20:46:52.060Z,2.30
2023-01-26T20:49:21.635Z,2.20
2023-01-26T20:51:51.130Z,2.20
2023-01-26T20:54:21.261Z,2.30
2023-01-26T20:56:51.757Z,2.30
2023-01-26T20:59:22.026Z,2.20
2023-01-26T21:01:51.446Z,2.30
2023-01-26T21:04:20.958Z,2.20
2023-01-26T21:06:50.994Z,2.20
2023-01-26T21:09:21.555Z,2.20
2023-01-26T21:11:51.959Z,2.20
2023-01-26T21:14:21.369Z,2.10
2023-01-26T21:16:50.867Z,2.20
2023-01-26T21:19:22.557Z,2.20
2023-01-26T21:21:52.054Z,2.10
2023-01-26T21:24:23.784Z,2.10
2023-01-26T21:26:53.406Z,2.10
2023-01-26T21:29:24.028Z,2.10
2023-01-26T21:31:53.501Z,2.10
2023-01-26T21:34:23.654Z,2.10
2023-01-26T21:36:53.087Z,2.10
2023-01-26T21:39:22.519Z,2.00
2023-01-26T21:41:57.823Z,2.10
2023-01-26T21:44:29.669Z,2.10
2023-01-26T21:47:03.758Z,2.10
2023-01-26T21:49:33.251Z,2.20
2023-01-26T21:52:20.655Z,2.10
2023-01-26T21:54:50.092Z,2.10
2023-01-26T21:57:37.559Z,2.10
2023-01-26T22:00:08.404Z,2.10
2023-01-26T22:02:37.853Z,2.10
2023-01-26T22:05:08.847Z,2.10
2023-01-26T22:07:38.313Z,2.00
2023-01-26T22:10:08.452Z,2.10
2023-01-26T22:12:39.381Z,2.10
2023-01-26T22:15:10.992Z,2.00
2023-01-26T22:17:40.415Z,2.10
2023-01-26T22:20:12.541Z,2.10
2023-01-26T22:22:42.711Z,2.10
2023-01-26T22:25:12.199Z,2.10
2023-01-26T22:27:42.577Z,2.10
2023-01-26T22:30:13.063Z,2.00
2023-01-26T22:32:44.230Z,2.00
2023-01-26T22:35:13.869Z,2.00
2023-01-26T22:37:43.304Z,1.90
2023-01-26T22:40:15.509Z,1.90
2023-01-26T22:42:46.977Z,2.00
2023-01-26T22:45:16.538Z,2.00
2023-01-26T22:47:46.404Z,2.00
2023-01-26T22:50:17.396Z,1.90
2023-01-26T22:52:46.802Z,2.00
2023-01-26T22:55:16.378Z,1.90
2023-01-26T22:57:46.050Z,2.00
2023-01-26T23:00:15.725Z,1.90
2023-01-26T23:02:45.170Z,2.00
2023-01-26T23:05:14.692Z,2.00
2023-01-26T23:07:44.421Z,1.90
2023-01-26T23:10:14.287Z,1.90
2023-01-26T23:12:44.420Z,1.90
2023-01-26T23:15:14.594Z,1.90
2023-01-26T23:17:44.214Z,1.90
2023-01-26T23:20:13.991Z,1.90
2023-01-26T23:22:44.137Z,1.90
2023-01-26T23:25:32.452Z,1.90
2023-01-26T23:28:06.037Z,1.90
2023-01-26T23:30:36.114Z,1.90
2023-01-26T23:33:05.495Z,1.90
2023-01-26T23:35:34.143Z,1.90
2023-01-26T23:38:04.630Z,1.90
2023-01-26T23:40:34.521Z,1.80
2023-01-26T23:43:16.106Z,1.80
2023-01-26T23:45:40.725Z,1.80
2023-01-26T23:48:10.369Z,1.80
2023-01-26T23:50:40.686Z,1.90
2023-01-26T23:53:11.656Z,1.90
2023-01-26T23:55:43.035Z,1.90
2023-01-26T23:58:13.306Z,1.80
